sensor_id;sensor_type;location;lat;lon;timestamp;P1;durP1;ratioP1;P2;durP2;ratioP2
16015;SDS011;8112;53.592;10.184;2023-04-07T00:00:45;11.57;;;9.13;;
16015;SDS011;8112;53.592;10.184;2023-04-07T00:05:47;8.90;;;7.93;;
16015;SDS011;8112;53.592;10.184;2023-04-07T00:10:50;10.77;;;9.20;;
16015;SDS011;8112;53.592;10.184;2023-04-07T00:15:52;11.43;;;9.43;;
16015;SDS011;8112;53.592;10.184;2023-04-07T00:20:54;11.63;;;9.03;;
16015;SDS011;8112;53.592;10.184;2023-04-07T00:25:57;11.63;;;9.30;;
16015;SDS011;8112;53.592;10.184;2023-04-07T00:30:59;9.60;;;8.57;;
16015;SDS011;8112;53.592;10.184;2023-04-07T00:36:00;12.10;;;9.03;;
16015;SDS011;8112;53.592;10.184;2023-04-07T00:41:03;10.40;;;8.80;;
16015;SDS011;8112;53.592;10.184;2023-04-07T00:46:05;10.37;;;8.97;;
16015;SDS011;8112;53.592;10.184;2023-04-07T00:51:08;10.40;;;8.47;;
16015;SDS011;8112;53.592;10.184;2023-04-07T00:56:11;11.67;;;9.10;;
16015;SDS011;8112;53.592;10.184;2023-04-07T01:01:18;9.73;;;8.50;;
16015;SDS011;8112;53.592;10.184;2023-04-07T01:06:25;9.00;;;7.67;;
16015;SDS011;8112;53.592;10.184;2023-04-07T01:11:34;11.07;;;7.93;;
16015;SDS011;8112;53.592;10.184;2023-04-07T01:16:44;10.43;;;8.33;;
16015;SDS011;8112;53.592;10.184;2023-04-07T01:21:51;8.93;;;8.00;;
16015;SDS011;8112;53.592;10.184;2023-04-07T01:26:59;9.10;;;7.80;;
16015;SDS011;8112;53.592;10.184;2023-04-07T01:32:15;10.13;;;7.93;;
16015;SDS011;8112;53.592;10.184;2023-04-07T01:37:19;10.93;;;7.30;;
16015;SDS011;8112;53.592;10.184;2023-04-07T01:42:22;8.93;;;7.80;;
16015;SDS011;8112;53.592;10.184;2023-04-07T01:47:28;9.03;;;7.73;;
16015;SDS011;8112;53.592;10.184;2023-04-07T01:52:30;8.50;;;7.60;;
16015;SDS011;8112;53.592;10.184;2023-04-07T01:57:33;7.60;;;6.80;;
16015;SDS011;8112;53.592;10.184;2023-04-07T02:02:44;8.23;;;7.20;;
16015;SDS011;8112;53.592;10.184;2023-04-07T02:07:51;7.80;;;6.93;;
16015;SDS011;8112;53.592;10.184;2023-04-07T02:12:57;7.13;;;6.43;;
16015;SDS011;8112;53.592;10.184;2023-04-07T02:18:01;7.57;;;6.73;;
16015;SDS011;8112;53.592;10.184;2023-04-07T02:23:06;9.23;;;6.87;;
16015;SDS011;8112;53.592;10.184;2023-04-07T02:28:09;7.23;;;6.47;;
16015;SDS011;8112;53.592;10.184;2023-04-07T02:33:12;7.93;;;6.67;;
16015;SDS011;8112;53.592;10.184;2023-04-07T02:38:16;7.30;;;6.17;;
16015;SDS011;8112;53.592;10.184;2023-04-07T02:43:18;7.03;;;6.20;;
16015;SDS011;8112;53.592;10.184;2023-04-07T02:48:21;6.80;;;6.10;;
16015;SDS011;8112;53.592;10.184;2023-04-07T02:53:23;7.30;;;6.40;;
16015;SDS011;8112;53.592;10.184;2023-04-07T02:58:25;6.83;;;6.03;;
16015;SDS011;8112;53.592;10.184;2023-04-07T03:03:28;7.93;;;6.23;;
16015;SDS011;8112;53.592;10.184;2023-04-07T03:08:42;7.60;;;6.00;;
16015;SDS011;8112;53.592;10.184;2023-04-07T03:13:44;7.70;;;6.10;;
16015;SDS011;8112;53.592;10.184;2023-04-07T03:18:47;6.90;;;5.90;;
16015;SDS011;8112;53.592;10.184;2023-04-07T03:23:50;7.37;;;6.53;;
16015;SDS011;8112;53.592;10.184;2023-04-07T03:28:52;7.90;;;6.23;;
16015;SDS011;8112;53.592;10.184;2023-04-07T03:33:55;8.47;;;5.93;;
16015;SDS011;8112;53.592;10.184;2023-04-07T03:38:58;8.00;;;6.57;;
16015;SDS011;8112;53.592;10.184;2023-04-07T03:44:01;7.33;;;6.03;;
16015;SDS011;8112;53.592;10.184;2023-04-07T03:49:06;7.10;;;6.37;;
16015;SDS011;8112;53.592;10.184;2023-04-07T03:54:08;6.80;;;5.97;;
16015;SDS011;8112;53.592;10.184;2023-04-07T03:59:14;9.80;;;6.53;;
16015;SDS011;8112;53.592;10.184;2023-04-07T04:04:32;7.20;;;6.20;;
16015;SDS011;8112;53.592;10.184;2023-04-07T04:09:34;8.47;;;6.87;;
16015;SDS011;8112;53.592;10.184;2023-04-07T04:14:37;8.40;;;6.20;;
16015;SDS011;8112;53.592;10.184;2023-04-07T04:19:43;9.70;;;6.43;;
16015;SDS011;8112;53.592;10.184;2023-04-07T04:24:53;6.77;;;5.90;;
16015;SDS011;8112;53.592;10.184;2023-04-07T04:29:57;6.90;;;5.97;;
16015;SDS011;8112;53.592;10.184;2023-04-07T04:35:10;7.80;;;6.33;;
16015;SDS011;8112;53.592;10.184;2023-04-07T04:40:22;8.27;;;6.47;;
16015;SDS011;8112;53.592;10.184;2023-04-07T04:45:24;6.90;;;5.77;;
16015;SDS011;8112;53.592;10.184;2023-04-07T04:50:28;7.57;;;6.77;;
16015;SDS011;8112;53.592;10.184;2023-04-07T04:55:30;8.17;;;7.10;;
16015;SDS011;8112;53.592;10.184;2023-04-07T05:00:33;10.23;;;7.03;;
16015;SDS011;8112;53.592;10.184;2023-04-07T05:05:39;8.83;;;6.93;;
16015;SDS011;8112;53.592;10.184;2023-04-07T05:10:42;8.53;;;6.60;;
16015;SDS011;8112;53.592;10.184;2023-04-07T05:15:47;8.47;;;6.70;;
16015;SDS011;8112;53.592;10.184;2023-04-07T05:20:50;8.53;;;6.40;;
16015;SDS011;8112;53.592;10.184;2023-04-07T05:25:53;7.40;;;6.63;;
16015;SDS011;8112;53.592;10.184;2023-04-07T05:30:56;7.70;;;6.57;;
16015;SDS011;8112;53.592;10.184;2023-04-07T05:36:05;9.43;;;6.83;;
16015;SDS011;8112;53.592;10.184;2023-04-07T05:41:08;7.73;;;6.43;;
16015;SDS011;8112;53.592;10.184;2023-04-07T05:46:10;8.13;;;6.87;;
16015;SDS011;8112;53.592;10.184;2023-04-07T05:51:22;8.73;;;7.20;;
16015;SDS011;8112;53.592;10.184;2023-04-07T05:56:26;7.13;;;6.43;;
16015;SDS011;8112;53.592;10.184;2023-04-07T06:01:28;8.07;;;6.33;;
16015;SDS011;8112;53.592;10.184;2023-04-07T06:06:33;8.93;;;6.40;;
16015;SDS011;8112;53.592;10.184;2023-04-07T06:11:35;8.70;;;7.57;;
16015;SDS011;8112;53.592;10.184;2023-04-07T06:16:37;8.80;;;6.90;;
16015;SDS011;8112;53.592;10.184;2023-04-07T06:21:40;8.43;;;7.30;;
16015;SDS011;8112;53.592;10.184;2023-04-07T06:26:42;7.47;;;6.73;;
16015;SDS011;8112;53.592;10.184;2023-04-07T06:31:44;7.37;;;6.53;;
16015;SDS011;8112;53.592;10.184;2023-04-07T06:36:48;9.83;;;7.37;;
16015;SDS011;8112;53.592;10.184;2023-04-07T06:41:51;10.00;;;6.83;;
16015;SDS011;8112;53.592;10.184;2023-04-07T06:46:53;10.40;;;7.70;;
16015;SDS011;8112;53.592;10.184;2023-04-07T06:51:56;8.20;;;7.13;;
16015;SDS011;8112;53.592;10.184;2023-04-07T06:56:57;10.63;;;6.53;;
16015;SDS011;8112;53.592;10.184;2023-04-07T07:02:00;9.13;;;6.60;;
16015;SDS011;8112;53.592;10.184;2023-04-07T07:07:03;8.43;;;7.37;;
16015;SDS011;8112;53.592;10.184;2023-04-07T07:12:05;9.17;;;6.77;;
16015;SDS011;8112;53.592;10.184;2023-04-07T07:17:07;6.60;;;5.83;;
16015;SDS011;8112;53.592;10.184;2023-04-07T07:22:10;7.40;;;6.10;;
16015;SDS011;8112;53.592;10.184;2023-04-07T07:27:12;7.03;;;6.20;;
16015;SDS011;8112;53.592;10.184;2023-04-07T07:32:13;6.60;;;5.90;;
16015;SDS011;8112;53.592;10.184;2023-04-07T07:37:16;7.10;;;5.77;;
16015;SDS011;8112;53.592;10.184;2023-04-07T07:42:18;7.20;;;5.97;;
16015;SDS011;8112;53.592;10.184;2023-04-07T07:47:20;7.13;;;5.43;;
16015;SDS011;8112;53.592;10.184;2023-04-07T07:52:23;8.27;;;6.37;;
16015;SDS011;8112;53.592;10.184;2023-04-07T07:57:25;8.10;;;5.70;;
16015;SDS011;8112;53.592;10.184;2023-04-07T08:02:27;7.57;;;5.97;;
16015;SDS011;8112;53.592;10.184;2023-04-07T08:07:31;7.47;;;5.03;;
16015;SDS011;8112;53.592;10.184;2023-04-07T08:12:33;9.40;;;5.60;;
16015;SDS011;8112;53.592;10.184;2023-04-07T08:17:35;7.60;;;6.07;;
16015;SDS011;8112;53.592;10.184;2023-04-07T08:22:38;7.60;;;6.23;;
16015;SDS011;8112;53.592;10.184;2023-04-07T08:27:40;6.23;;;5.60;;
16015;SDS011;8112;53.592;10.184;2023-04-07T08:32:42;6.87;;;5.77;;
16015;SDS011;8112;53.592;10.184;2023-04-07T08:37:46;10.67;;;6.63;;
16015;SDS011;8112;53.592;10.184;2023-04-07T08:42:48;7.33;;;6.00;;
16015;SDS011;8112;53.592;10.184;2023-04-07T08:47:52;7.30;;;5.60;;
16015;SDS011;8112;53.592;10.184;2023-04-07T08:52:59;6.87;;;5.40;;
16015;SDS011;8112;53.592;10.184;2023-04-07T08:58:04;8.37;;;6.20;;
16015;SDS011;8112;53.592;10.184;2023-04-07T09:03:11;8.57;;;6.13;;
16015;SDS011;8112;53.592;10.184;2023-04-07T09:08:15;9.53;;;6.10;;
16015;SDS011;8112;53.592;10.184;2023-04-07T09:13:16;8.20;;;5.67;;
16015;SDS011;8112;53.592;10.184;2023-04-07T09:18:18;9.30;;;6.23;;
16015;SDS011;8112;53.592;10.184;2023-04-07T09:23:27;10.17;;;6.93;;
16015;SDS011;8112;53.592;10.184;2023-04-07T09:28:40;7.43;;;5.70;;
16015;SDS011;8112;53.592;10.184;2023-04-07T09:33:42;7.57;;;6.30;;
16015;SDS011;8112;53.592;10.184;2023-04-07T09:38:45;8.10;;;6.50;;
16015;SDS011;8112;53.592;10.184;2023-04-07T09:43:47;16.63;;;7.27;;
16015;SDS011;8112;53.592;10.184;2023-04-07T09:48:49;8.43;;;7.07;;
16015;SDS011;8112;53.592;10.184;2023-04-07T09:54:05;7.10;;;5.53;;
16015;SDS011;8112;53.592;10.184;2023-04-07T09:59:07;7.23;;;5.90;;
16015;SDS011;8112;53.592;10.184;2023-04-07T10:04:09;8.27;;;5.97;;
16015;SDS011;8112;53.592;10.184;2023-04-07T10:09:13;9.63;;;5.77;;
16015;SDS011;8112;53.592;10.184;2023-04-07T10:14:16;7.60;;;6.00;;
16015;SDS011;8112;53.592;10.184;2023-04-07T10:19:18;7.23;;;5.53;;
16015;SDS011;8112;53.592;10.184;2023-04-07T10:24:28;7.07;;;5.10;;
16015;SDS011;8112;53.592;10.184;2023-04-07T10:29:45;5.80;;;4.90;;
16015;SDS011;8112;53.592;10.184;2023-04-07T10:34:58;5.40;;;4.73;;
16015;SDS011;8112;53.592;10.184;2023-04-07T10:51:14;6.17;;;4.80;;
16015;SDS011;8112;53.592;10.184;2023-04-07T10:56:18;4.70;;;4.20;;
16015;SDS011;8112;53.592;10.184;2023-04-07T11:01:20;6.23;;;4.77;;
16015;SDS011;8112;53.592;10.184;2023-04-07T11:06:21;4.73;;;4.13;;
16015;SDS011;8112;53.592;10.184;2023-04-07T11:11:38;5.23;;;4.17;;
16015;SDS011;8112;53.592;10.184;2023-04-07T11:16:41;5.93;;;4.07;;
16015;SDS011;8112;53.592;10.184;2023-04-07T11:21:44;4.23;;;3.60;;
16015;SDS011;8112;53.592;10.184;2023-04-07T11:26:47;4.27;;;3.60;;
16015;SDS011;8112;53.592;10.184;2023-04-07T11:31:49;7.70;;;4.50;;
16015;SDS011;8112;53.592;10.184;2023-04-07T11:36:51;5.43;;;4.20;;
16015;SDS011;8112;53.592;10.184;2023-04-07T11:41:54;5.80;;;4.03;;
16015;SDS011;8112;53.592;10.184;2023-04-07T11:46:57;6.80;;;4.30;;
16015;SDS011;8112;53.592;10.184;2023-04-07T11:52:01;4.87;;;3.70;;
16015;SDS011;8112;53.592;10.184;2023-04-07T11:57:06;5.67;;;3.83;;
16015;SDS011;8112;53.592;10.184;2023-04-07T12:02:11;4.40;;;3.63;;
16015;SDS011;8112;53.592;10.184;2023-04-07T12:07:30;5.27;;;3.70;;
16015;SDS011;8112;53.592;10.184;2023-04-07T12:12:33;12.07;;;4.37;;
16015;SDS011;8112;53.592;10.184;2023-04-07T12:17:35;8.30;;;3.57;;
16015;SDS011;8112;53.592;10.184;2023-04-07T12:22:37;5.70;;;3.23;;
16015;SDS011;8112;53.592;10.184;2023-04-07T12:27:40;5.63;;;3.00;;
16015;SDS011;8112;53.592;10.184;2023-04-07T12:32:42;2.90;;;2.30;;
16015;SDS011;8112;53.592;10.184;2023-04-07T12:37:43;3.17;;;2.30;;
16015;SDS011;8112;53.592;10.184;2023-04-07T12:42:47;2.63;;;2.30;;
16015;SDS011;8112;53.592;10.184;2023-04-07T12:47:49;4.00;;;1.97;;
16015;SDS011;8112;53.592;10.184;2023-04-07T12:52:51;2.27;;;1.60;;
16015;SDS011;8112;53.592;10.184;2023-04-07T12:57:55;2.23;;;1.67;;
16015;SDS011;8112;53.592;10.184;2023-04-07T13:02:56;4.70;;;2.00;;
16015;SDS011;8112;53.592;10.184;2023-04-07T13:07:58;2.97;;;2.43;;
16015;SDS011;8112;53.592;10.184;2023-04-07T13:13:02;2.83;;;1.77;;
16015;SDS011;8112;53.592;10.184;2023-04-07T13:18:04;2.80;;;2.07;;
16015;SDS011;8112;53.592;10.184;2023-04-07T13:23:06;4.20;;;2.43;;
16015;SDS011;8112;53.592;10.184;2023-04-07T13:28:09;2.50;;;2.30;;
16015;SDS011;8112;53.592;10.184;2023-04-07T13:33:10;2.30;;;2.10;;
16015;SDS011;8112;53.592;10.184;2023-04-07T13:38:12;4.63;;;3.07;;
16015;SDS011;8112;53.592;10.184;2023-04-07T13:43:16;3.70;;;2.30;;
16015;SDS011;8112;53.592;10.184;2023-04-07T13:48:18;3.33;;;2.20;;
16015;SDS011;8112;53.592;10.184;2023-04-07T13:53:19;4.73;;;3.30;;
16015;SDS011;8112;53.592;10.184;2023-04-07T13:58:23;3.83;;;2.70;;
16015;SDS011;8112;53.592;10.184;2023-04-07T14:03:25;4.40;;;3.50;;
16015;SDS011;8112;53.592;10.184;2023-04-07T14:08:26;6.13;;;3.33;;
16015;SDS011;8112;53.592;10.184;2023-04-07T14:13:30;4.13;;;3.03;;
16015;SDS011;8112;53.592;10.184;2023-04-07T14:18:31;4.00;;;2.87;;
16015;SDS011;8112;53.592;10.184;2023-04-07T14:23:33;4.17;;;3.13;;
16015;SDS011;8112;53.592;10.184;2023-04-07T14:28:37;4.87;;;3.40;;
16015;SDS011;8112;53.592;10.184;2023-04-07T14:33:38;5.50;;;3.43;;
16015;SDS011;8112;53.592;10.184;2023-04-07T14:38:40;3.40;;;2.97;;
16015;SDS011;8112;53.592;10.184;2023-04-07T14:43:43;4.53;;;3.33;;
16015;SDS011;8112;53.592;10.184;2023-04-07T14:48:46;3.87;;;2.87;;
16015;SDS011;8112;53.592;10.184;2023-04-07T14:53:48;4.33;;;3.17;;
16015;SDS011;8112;53.592;10.184;2023-04-07T14:58:53;3.83;;;3.40;;
16015;SDS011;8112;53.592;10.184;2023-04-07T15:03:55;6.40;;;3.77;;
16015;SDS011;8112;53.592;10.184;2023-04-07T15:08:57;5.80;;;3.80;;
16015;SDS011;8112;53.592;10.184;2023-04-07T15:14:00;4.40;;;3.03;;
16015;SDS011;8112;53.592;10.184;2023-04-07T15:19:03;4.03;;;3.63;;
16015;SDS011;8112;53.592;10.184;2023-04-07T15:24:04;5.17;;;4.10;;
16015;SDS011;8112;53.592;10.184;2023-04-07T15:29:07;4.73;;;3.87;;
16015;SDS011;8112;53.592;10.184;2023-04-07T15:34:09;5.00;;;3.70;;
16015;SDS011;8112;53.592;10.184;2023-04-07T15:39:11;5.77;;;3.97;;
16015;SDS011;8112;53.592;10.184;2023-04-07T15:44:16;9.07;;;4.07;;
16015;SDS011;8112;53.592;10.184;2023-04-07T15:49:18;4.03;;;3.53;;
16015;SDS011;8112;53.592;10.184;2023-04-07T15:54:21;5.30;;;3.83;;
16015;SDS011;8112;53.592;10.184;2023-04-07T15:59:24;5.23;;;3.87;;
16015;SDS011;8112;53.592;10.184;2023-04-07T16:04:28;5.73;;;4.03;;
16015;SDS011;8112;53.592;10.184;2023-04-07T16:09:30;6.47;;;4.43;;
16015;SDS011;8112;53.592;10.184;2023-04-07T16:14:33;5.10;;;4.00;;
16015;SDS011;8112;53.592;10.184;2023-04-07T16:19:35;7.33;;;4.33;;
16015;SDS011;8112;53.592;10.184;2023-04-07T16:24:37;7.63;;;4.70;;
16015;SDS011;8112;53.592;10.184;2023-04-07T16:29:40;5.80;;;4.30;;
16015;SDS011;8112;53.592;10.184;2023-04-07T16:34:41;5.17;;;4.17;;
16015;SDS011;8112;53.592;10.184;2023-04-07T16:39:43;4.80;;;3.97;;
16015;SDS011;8112;53.592;10.184;2023-04-07T16:44:46;5.83;;;4.00;;
16015;SDS011;8112;53.592;10.184;2023-04-07T16:49:48;5.03;;;4.07;;
16015;SDS011;8112;53.592;10.184;2023-04-07T16:54:51;4.87;;;3.50;;
16015;SDS011;8112;53.592;10.184;2023-04-07T16:59:54;4.13;;;3.33;;
16015;SDS011;8112;53.592;10.184;2023-04-07T17:04:55;4.17;;;3.57;;
16015;SDS011;8112;53.592;10.184;2023-04-07T17:09:57;5.27;;;3.60;;
16015;SDS011;8112;53.592;10.184;2023-04-07T17:15:00;3.70;;;3.30;;
16015;SDS011;8112;53.592;10.184;2023-04-07T17:20:02;3.40;;;3.10;;
16015;SDS011;8112;53.592;10.184;2023-04-07T17:25:04;3.60;;;3.30;;
16015;SDS011;8112;53.592;10.184;2023-04-07T17:30:08;4.03;;;3.33;;
16015;SDS011;8112;53.592;10.184;2023-04-07T17:35:11;5.27;;;3.57;;
16015;SDS011;8112;53.592;10.184;2023-04-07T17:40:12;6.47;;;4.47;;
16015;SDS011;8112;53.592;10.184;2023-04-07T17:45:16;5.10;;;4.37;;
16015;SDS011;8112;53.592;10.184;2023-04-07T17:50:18;8.10;;;5.10;;
16015;SDS011;8112;53.592;10.184;2023-04-07T17:55:19;6.10;;;4.93;;
16015;SDS011;8112;53.592;10.184;2023-04-07T18:00:23;5.87;;;4.93;;
16015;SDS011;8112;53.592;10.184;2023-04-07T18:05:25;8.37;;;5.57;;
16015;SDS011;8112;53.592;10.184;2023-04-07T18:10:30;6.47;;;5.87;;
16015;SDS011;8112;53.592;10.184;2023-04-07T18:15:33;9.30;;;6.07;;
16015;SDS011;8112;53.592;10.184;2023-04-07T18:20:34;7.30;;;5.90;;
16015;SDS011;8112;53.592;10.184;2023-04-07T18:25:36;7.00;;;5.67;;
16015;SDS011;8112;53.592;10.184;2023-04-07T18:30:41;8.37;;;6.13;;
16015;SDS011;8112;53.592;10.184;2023-04-07T18:35:42;6.43;;;5.23;;
16015;SDS011;8112;53.592;10.184;2023-04-07T18:40:44;7.67;;;6.63;;
16015;SDS011;8112;53.592;10.184;2023-04-07T18:45:47;10.97;;;7.37;;
16015;SDS011;8112;53.592;10.184;2023-04-07T18:50:49;9.93;;;6.33;;
16015;SDS011;8112;53.592;10.184;2023-04-07T18:55:51;9.10;;;6.17;;
16015;SDS011;8112;53.592;10.184;2023-04-07T19:00:54;7.90;;;6.63;;
16015;SDS011;8112;53.592;10.184;2023-04-07T19:05:57;8.90;;;6.10;;
16015;SDS011;8112;53.592;10.184;2023-04-07T19:10:59;9.03;;;5.60;;
16015;SDS011;8112;53.592;10.184;2023-04-07T19:16:02;7.40;;;5.83;;
16015;SDS011;8112;53.592;10.184;2023-04-07T19:21:04;8.83;;;6.23;;
16015;SDS011;8112;53.592;10.184;2023-04-07T19:26:08;7.50;;;6.07;;
16015;SDS011;8112;53.592;10.184;2023-04-07T19:31:12;9.07;;;5.90;;
16015;SDS011;8112;53.592;10.184;2023-04-07T19:36:13;8.97;;;6.13;;
16015;SDS011;8112;53.592;10.184;2023-04-07T19:41:15;9.27;;;6.80;;
16015;SDS011;8112;53.592;10.184;2023-04-07T19:46:18;8.00;;;5.70;;
16015;SDS011;8112;53.592;10.184;2023-04-07T19:51:20;8.73;;;6.17;;
16015;SDS011;8112;53.592;10.184;2023-04-07T19:56:22;9.20;;;5.60;;
16015;SDS011;8112;53.592;10.184;2023-04-07T20:01:25;6.10;;;4.60;;
16015;SDS011;8112;53.592;10.184;2023-04-07T20:06:27;5.53;;;5.00;;
16015;SDS011;8112;53.592;10.184;2023-04-07T20:11:29;6.57;;;4.93;;
16015;SDS011;8112;53.592;10.184;2023-04-07T20:16:32;5.90;;;4.60;;
16015;SDS011;8112;53.592;10.184;2023-04-07T20:21:34;5.43;;;4.93;;
16015;SDS011;8112;53.592;10.184;2023-04-07T20:26:36;6.97;;;4.27;;
16015;SDS011;8112;53.592;10.184;2023-04-07T20:31:39;6.00;;;4.80;;
16015;SDS011;8112;53.592;10.184;2023-04-07T20:36:41;7.13;;;4.83;;
16015;SDS011;8112;53.592;10.184;2023-04-07T20:41:43;7.87;;;5.63;;
16015;SDS011;8112;53.592;10.184;2023-04-07T20:46:46;6.43;;;5.20;;
16015;SDS011;8112;53.592;10.184;2023-04-07T20:51:48;9.00;;;5.57;;
16015;SDS011;8112;53.592;10.184;2023-04-07T20:56:50;8.30;;;5.47;;
16015;SDS011;8112;53.592;10.184;2023-04-07T21:01:53;8.40;;;6.13;;
16015;SDS011;8112;53.592;10.184;2023-04-07T21:06:55;8.43;;;5.97;;
16015;SDS011;8112;53.592;10.184;2023-04-07T21:11:57;8.73;;;6.70;;
16015;SDS011;8112;53.592;10.184;2023-04-07T21:17:02;9.20;;;6.20;;
16015;SDS011;8112;53.592;10.184;2023-04-07T21:22:04;8.27;;;5.93;;
16015;SDS011;8112;53.592;10.184;2023-04-07T21:27:05;9.27;;;6.27;;
16015;SDS011;8112;53.592;10.184;2023-04-07T21:32:08;8.57;;;5.97;;
16015;SDS011;8112;53.592;10.184;2023-04-07T21:37:11;10.03;;;7.47;;
16015;SDS011;8112;53.592;10.184;2023-04-07T21:42:12;7.87;;;5.90;;
16015;SDS011;8112;53.592;10.184;2023-04-07T21:47:16;11.77;;;7.47;;
16015;SDS011;8112;53.592;10.184;2023-04-07T21:52:18;9.40;;;6.70;;
16015;SDS011;8112;53.592;10.184;2023-04-07T21:57:19;8.90;;;6.57;;
16015;SDS011;8112;53.592;10.184;2023-04-07T22:02:22;8.67;;;6.50;;
16015;SDS011;8112;53.592;10.184;2023-04-07T22:07:24;10.17;;;6.83;;
16015;SDS011;8112;53.592;10.184;2023-04-07T22:12:26;10.63;;;6.87;;
16015;SDS011;8112;53.592;10.184;2023-04-07T22:17:29;8.93;;;6.83;;
16015;SDS011;8112;53.592;10.184;2023-04-07T22:22:31;9.90;;;6.87;;
16015;SDS011;8112;53.592;10.184;2023-04-07T22:27:32;9.23;;;6.37;;
16015;SDS011;8112;53.592;10.184;2023-04-07T22:32:36;10.77;;;7.37;;
16015;SDS011;8112;53.592;10.184;2023-04-07T22:37:37;12.70;;;8.20;;
16015;SDS011;8112;53.592;10.184;2023-04-07T22:42:39;10.53;;;7.00;;
16015;SDS011;8112;53.592;10.184;2023-04-07T22:47:42;13.43;;;8.17;;
16015;SDS011;8112;53.592;10.184;2023-04-07T22:52:44;16.27;;;8.17;;
16015;SDS011;8112;53.592;10.184;2023-04-07T22:57:45;11.33;;;8.07;;
16015;SDS011;8112;53.592;10.184;2023-04-07T23:02:48;12.80;;;8.67;;
16015;SDS011;8112;53.592;10.184;2023-04-07T23:07:50;16.50;;;9.23;;
16015;SDS011;8112;53.592;10.184;2023-04-07T23:12:52;15.27;;;10.23;;
16015;SDS011;8112;53.592;10.184;2023-04-07T23:17:55;16.20;;;9.63;;
16015;SDS011;8112;53.592;10.184;2023-04-07T23:22:57;16.40;;;10.07;;
16015;SDS011;8112;53.592;10.184;2023-04-07T23:27:58;17.37;;;9.87;;
16015;SDS011;8112;53.592;10.184;2023-04-07T23:33:01;15.90;;;10.20;;
16015;SDS011;8112;53.592;10.184;2023-04-07T23:38:03;16.47;;;10.13;;
16015;SDS011;8112;53.592;10.184;2023-04-07T23:43:07;14.47;;;9.53;;
16015;SDS011;8112;53.592;10.184;2023-04-07T23:48:11;15.03;;;9.53;;
16015;SDS011;8112;53.592;10.184;2023-04-07T23:53:12;15.60;;;10.03;;
16015;SDS011;8112;53.592;10.184;2023-04-07T23:58:14;17.20;;;10.43;;
